• Join FlightAware (Why Join?)
  • Login
  • US Flag 
02:18PM EDT


 

Airport Tracker/Info


-or-


 

Live Flight TrackerFlight Track Log ✈ AWE1640 ✈ 11-May-2013 ✈ KCLT - KEWR

Flight Track Log - Related Links

Times and Time Zones

All times are in EDT time to prevent confusion due to time zone crossing. See the AWE1640 flight status page for this flight to view local times or setup timezone preferences in your user account.

Time Position Orientation Groundspeed Altitude Reporting Facility
EDT Latitude Longitude Course Direction KTS MPH feet Rate Location/Type
07:56AM 35.1928 -80.9356 72° East 164 189 1,700  Level Atlanta Center
07:56AM 35.1511 -80.9319 176° South 177 204 3,100 2,040 Climbing Atlanta Center
07:57AM 35.0994 -80.8731 137° Southeast 273 314 5,500 2,400 Climbing Atlanta Center
07:58AM 35.1901 -80.5733 29° Northeast  Level FlightAware Approximate
07:59AM 35.2808 -80.5090 30° Northeast  Level FlightAware Approximate
07:59AM 35.1011 -80.7714 89° East 323 372 8,000  Level Atlanta Center
07:59AM 35.1142 -80.7125 75° East 320 368 8,500 1,860 Climbing Atlanta Center
08:00AM 35.3435 -80.4282 72° East  Level FlightAware Approximate
08:00AM 35.1619 -80.6319 54° Northeast 343 395 11,000  Level Atlanta Center
08:01AM 35.3758 -80.3059 72° East  Level FlightAware Approximate
08:01AM 35.2214 -80.5228 56° Northeast 369 425 12,800  Level Atlanta Center
08:02AM 35.2931 -80.4000 54° Northeast 390 449 15,500 2,100 Climbing Atlanta Center
08:04AM 35.4406 -80.1072 58° Northeast 438 504 20,100 1,800 Climbing Washington Center
08:05AM 35.4817 -79.9614 71° East 443 510 21,800 1,380 Climbing Washington Center
08:07AM 35.5206 -79.8078 73° East 448 516 23,000 1,260 Climbing Washington Center
08:07AM 35.5572 -79.6542 74° East 460 529 24,400 1,560 Climbing Washington Center
08:08AM 35.6000 -79.4953 72° East 474 545 26,100 1,260 Climbing Washington Center
08:09AM 35.6508 -79.3419 68° East 474 545 27,000 1,080 Climbing Washington Center
08:11AM 35.7281 -79.2022 56° Northeast 479 551 28,300 960 Climbing Washington Center
08:11AM 35.8458 -79.1050 34° Northeast 484 557 29,000 600 Climbing Washington Center
08:13AM 35.9650 -79.0206 30° Northeast 484 557 29,500 900 Climbing Washington Center
08:13AM 36.0844 -78.9281 32° Northeast 489 563 30,900 720 Climbing Washington Center
08:14AM 36.2017 -78.8431 30° Northeast 494 568 31,000  Climbing Washington Center
08:15AM 36.3317 -78.7453 31° Northeast 494 568 31,000  Level Washington Center
08:16AM 36.4486 -78.6569 31° Northeast 494 568 31,000  Level Washington Center
08:17AM 36.5656 -78.5711 31° Northeast 494 568 31,000  Level Washington Center
08:18AM 36.6803 -78.4822 32° Northeast 489 563 31,000  Level Washington Center
08:20AM 36.7825 -78.4006 33° Northeast 484 557 31,000  Level Washington Center
08:21AM 36.8969 -78.3164 30° Northeast 484 557 31,000  Level Washington Center
08:21AM 37.0117 -78.2242 33° Northeast 489 563 31,000  Level Washington Center
08:22AM 37.1242 -78.1394 31° Northeast 482 555 31,000  Level Washington Center
08:24AM 37.2406 -78.0547 30° Northeast 482 555 31,000  Level Washington Center
08:24AM 37.3550 -77.9669 31° Northeast 482 555 31,000  Level Washington Center
08:25AM 37.4694 -77.8761 32° Northeast 482 555 31,000  Level Washington Center
08:26AM 37.5819 -77.7800 34° Northeast 482 555 31,000  Level Washington Center
08:27AM 37.6919 -77.6833 35° Northeast 482 555 31,000  Level Washington Center
08:28AM 37.8000 -77.5814 37° Northeast 487 560 31,000  Level Washington Center
08:29AM 37.9103 -77.4814 36° Northeast 487 560 31,000  Level Washington Center
08:30AM 38.0203 -77.3814 36° Northeast 482 555 31,000  Level Washington Center
08:31AM 38.1386 -77.2733 36° Northeast 482 555 31,000  Level Washington Center
08:32AM 38.2231 -77.1933 37° Northeast 482 555 31,000  Level Washington Center
08:33AM 38.3539 -77.0744 35° Northeast 480 552 31,000 -240 Level Washington Center
08:34AM 38.4633 -76.9731 36° Northeast 480 552 30,600 -660 Descending Washington Center
08:35AM 38.5689 -76.8717 37° Northeast 480 552 29,700 -960 Descending Washington Center
08:36AM 38.6761 -76.7725 36° Northeast 480 552 28,700 -1,020 Descending Washington Center
08:37AM 38.7794 -76.6567 41° Northeast 485 558 27,700 -840 Descending Washington Center
08:38AM 38.8825 -76.5408 41° Northeast 490 564 27,000 -360 Descending Washington Center
08:39AM 38.9833 -76.4222 42° Northeast 490 564 27,000  Level Washington Center
08:41AM 39.0842 -76.3056 42° Northeast 490 564 27,000  Level Washington Center
08:41AM 39.1869 -76.1861 42° Northeast 490 564 27,000 -60 Level Washington Center
08:42AM 39.2814 -76.0794 41° Northeast 490 564 26,900 -960 Descending Washington Center
08:44AM 39.3817 -75.9647 41° Northeast 490 564 25,100 -1,740 Descending Washington Center
08:44AM 39.4758 -75.8522 43° Northeast 474 545 23,500 -1,680 Descending Washington Center
08:45AM 39.5656 -75.7397 44° Northeast 467 537 21,900 -1,620 Descending Washington Center
08:46AM 39.6594 -75.6319 41° Northeast 449 517 20,300 -1,680 Descending Washington Center
08:47AM 39.7489 -75.5239 43° Northeast 443 510 18,600 -1,740 Descending Washington Center
08:49AM 39.8342 -75.4211 43° Northeast 426 490 16,800 -1,800 Descending Washington Center
08:49AM 39.9194 -75.3183 43° Northeast 419 482 15,100 -1,740 Descending Washington Center
08:50AM 40.0025 -75.2178 43° Northeast 413 475 13,400 -1,680 Descending Washington Center
08:52AM 40.0815 -75.1018 48° Northeast  Level FlightAware Approximate
08:52AM 40.1500 -75.0333 48° Northeast 393 452 10,600  Level New York TRACON
08:53AM 40.2167 -74.9500 44° Northeast 350 403 9,200 -1,440 Descending New York TRACON
08:54AM 40.3000 -74.8667 37° Northeast 329 379 7,800 -1,380 Descending New York TRACON
08:55AM 40.3667 -74.8167 30° Northeast 318 366 6,600 -960 Descending New York TRACON
08:56AM 40.4333 -74.7667 30° Northeast 311 358 6,000 -300 Descending New York TRACON
08:57AM 40.5000 -74.7000 37° Northeast 311 358 6,000  Level New York TRACON
08:58AM 40.5667 -74.6500 30° Northeast 309 356 6,000 -120 Level New York TRACON
08:59AM 40.6333 -74.6000 30° Northeast 313 360 5,800 -540 Descending New York TRACON
09:00AM 40.7167 -74.5833 North 296 341 5,000 -420 Descending New York TRACON
09:01AM 40.7833 -74.5333 30° Northeast 308 354 5,000  Level New York TRACON
09:02AM 40.8667 -74.4667 31° Northeast 309 356 5,000  Level New York TRACON
09:03AM 40.9333 -74.4000 37° Northeast 316 364 5,000  Level New York TRACON
09:04AM 40.9500 -74.2833 79° East 311 358 5,000 -300 Level New York TRACON
09:05AM 40.9333 -74.1833 102° East 299 344 4,500 -600 Descending New York TRACON
09:06AM 40.8833 -74.1167 135° Southeast 242 278 3,900 -900 Descending New York TRACON
09:07AM 40.8500 -74.0833 143° Southeast 170 196 2,900 -840 Descending New York TRACON
09:08AM 40.8000 -74.1000 194° South 149 171 2,300 -600 Descending New York TRACON